createdAt,value
2017-07-25T06:28:58.115Z,15.20
2017-07-25T06:34:41.390Z,15.60
2017-07-25T06:37:31.166Z,15.70
2017-07-25T06:40:03.130Z,15.70
2017-07-25T06:45:37.744Z,15.60
2017-07-25T06:48:26.271Z,15.70
2017-07-25T06:53:49.075Z,15.90
2017-07-25T06:59:36.928Z,15.90
2017-07-25T07:02:08.499Z,15.90
2017-07-25T07:04:39.096Z,15.90
2017-07-25T07:07:28.944Z,15.90
2017-07-25T07:09:59.379Z,15.90
2017-07-25T07:12:37.471Z,16.00
2017-07-25T07:18:01.401Z,16.00
2017-07-25T07:20:35.020Z,16.10
2017-07-25T07:23:04.190Z,16.10
2017-07-25T07:25:36.666Z,16.20
2017-07-25T07:28:11.974Z,16.10
2017-07-25T07:33:59.115Z,16.30
2017-07-25T07:36:31.157Z,16.40
2017-07-25T07:39:03.938Z,16.40
2017-07-25T07:41:36.505Z,16.40
2017-07-25T07:44:06.520Z,16.40
2017-07-25T07:46:42.286Z,16.40
2017-07-25T07:49:28.597Z,16.50
2017-07-25T07:52:06.563Z,16.50
2017-07-25T07:54:55.055Z,16.50
2017-07-25T07:57:29.267Z,16.50
2017-07-25T08:00:12.831Z,16.50
2017-07-25T08:03:06.075Z,16.50
2017-07-25T08:05:37.931Z,16.50
2017-07-25T08:08:07.297Z,16.50
2017-07-25T08:10:38.421Z,16.50
2017-07-25T08:13:14.970Z,16.50
2017-07-25T08:18:40.985Z,16.50
2017-07-25T08:21:22.515Z,16.50
2017-07-25T08:23:57.457Z,16.50
2017-07-25T08:26:35.131Z,16.60
2017-07-25T08:32:32.483Z,16.70
2017-07-25T08:49:38.890Z,17.40
2017-07-25T08:55:25.928Z,17.50
2017-07-25T08:58:05.825Z,17.50
2017-07-25T09:01:02.562Z,17.40
2017-07-25T09:03:41.963Z,17.60
2017-07-25T09:06:32.574Z,17.90
2017-07-25T09:12:05.239Z,18.50
2017-07-25T09:14:40.613Z,18.70
2017-07-25T09:17:35.034Z,18.90
2017-07-25T09:20:13.918Z,19.00
2017-07-25T09:23:06.913Z,19.00
2017-07-25T09:25:40.881Z,19.20
2017-07-25T09:28:33.245Z,19.40
2017-07-25T09:31:06.260Z,19.60
2017-07-25T09:33:37.899Z,19.60
2017-07-25T09:36:37.434Z,19.60
2017-07-25T09:39:08.276Z,19.60
2017-07-25T09:42:02.464Z,19.70
2017-07-25T09:44:40.446Z,19.90
2017-07-25T09:52:59.540Z,20.30
2017-07-25T09:55:28.538Z,20.40
2017-07-25T09:58:01.706Z,20.30
2017-07-25T10:00:36.374Z,20.00
2017-07-25T10:03:06.771Z,19.60
2017-07-25T10:05:57.393Z,19.20
2017-07-25T10:17:32.166Z,17.30
2017-07-25T10:22:38.879Z,17.40
2017-07-25T10:25:10.362Z,17.50
2017-07-25T10:27:54.433Z,17.60
2017-07-25T10:30:25.177Z,17.70
2017-07-25T10:32:54.516Z,17.40
2017-07-25T10:35:23.879Z,17.20
2017-07-25T10:37:52.098Z,17.10
2017-07-25T10:40:20.279Z,17.20
2017-07-25T10:42:51.076Z,17.50
2017-07-25T10:45:19.935Z,17.80
2017-07-25T10:47:48.146Z,17.70
2017-07-25T10:50:20.219Z,17.70
2017-07-25T10:52:48.517Z,17.50
2017-07-25T10:55:17.630Z,17.20
2017-07-25T10:57:46.961Z,17.00
2017-07-25T11:00:17.415Z,17.00
2017-07-25T11:02:46.522Z,17.10
2017-07-25T11:05:20.251Z,17.60
2017-07-25T11:07:49.928Z,17.60
2017-07-25T11:10:19.466Z,17.60
2017-07-25T11:12:48.990Z,17.60
2017-07-25T11:15:18.168Z,17.70
2017-07-25T11:17:49.309Z,17.60
2017-07-25T11:20:17.563Z,17.50
2017-07-25T11:22:45.788Z,17.40
2017-07-25T11:25:15.711Z,17.00
2017-07-25T11:27:45.095Z,16.90
2017-07-25T11:30:16.092Z,17.00
2017-07-25T11:32:48.139Z,17.20
2017-07-25T11:35:18.906Z,17.30
2017-07-25T11:37:47.257Z,17.30
2017-07-25T11:40:17.910Z,17.30
2017-07-25T11:42:47.402Z,17.20
2017-07-25T11:45:16.834Z,17.30
2017-07-25T11:47:45.157Z,17.30
2017-07-25T11:50:13.346Z,17.50
2017-07-25T11:52:42.282Z,17.50
2017-07-25T11:55:12.362Z,17.20
2017-07-25T11:57:40.535Z,17.20
2017-07-25T12:00:08.705Z,17.30
2017-07-25T12:02:36.894Z,17.20
2017-07-25T12:05:05.044Z,17.20
2017-07-25T12:07:33.233Z,17.10
2017-07-25T12:10:03.434Z,17.10
2017-07-25T12:12:33.158Z,17.10
2017-07-25T12:15:02.267Z,17.00
2017-07-25T12:17:30.422Z,17.10
2017-07-25T12:19:59.387Z,17.20
2017-07-25T12:22:28.468Z,17.20
2017-07-25T12:25:00.018Z,17.20
2017-07-25T12:27:28.904Z,17.30
2017-07-25T12:30:03.055Z,17.40
2017-07-25T12:32:31.411Z,17.30
2017-07-25T12:34:59.582Z,17.20
2017-07-25T12:37:28.804Z,17.10
2017-07-25T12:39:59.444Z,17.10
2017-07-25T12:42:32.804Z,17.30
2017-07-25T12:45:01.025Z,17.40
2017-07-25T12:47:29.283Z,17.30
2017-07-25T12:49:58.827Z,17.40
2017-07-25T12:52:28.093Z,17.40
2017-07-25T12:54:59.331Z,17.40
2017-07-25T12:57:30.606Z,17.30
2017-07-25T13:00:00.301Z,17.30
2017-07-25T13:02:32.328Z,17.40
2017-07-25T13:05:00.484Z,17.60
2017-07-25T13:07:28.631Z,17.70
2017-07-25T13:09:57.787Z,17.60
2017-07-25T13:12:28.116Z,17.30
2017-07-25T13:14:59.159Z,17.00
2017-07-25T13:17:28.595Z,16.90
2017-07-25T13:19:56.770Z,16.80
2017-07-25T13:22:27.162Z,16.60
2017-07-25T13:24:56.728Z,16.60
2017-07-25T13:27:25.012Z,16.50
2017-07-25T13:29:54.123Z,16.60
2017-07-25T13:32:22.340Z,16.70
2017-07-25T13:34:54.350Z,16.70
2017-07-25T13:37:23.776Z,16.70
2017-07-25T13:39:53.352Z,16.70
2017-07-25T13:42:21.693Z,16.80
2017-07-25T13:44:50.929Z,16.80
2017-07-25T13:47:22.098Z,16.80
2017-07-25T13:49:57.621Z,16.80
2017-07-25T13:52:33.356Z,16.90
2017-07-25T13:55:06.456Z,17.00
2017-07-25T13:57:34.893Z,17.00
2017-07-25T14:00:11.016Z,16.90
2017-07-25T14:02:40.402Z,17.00
2017-07-25T14:05:12.667Z,17.20
2017-07-25T14:07:45.654Z,17.20
2017-07-25T14:10:16.852Z,17.20
2017-07-25T14:12:44.974Z,17.20
2017-07-25T14:15:13.096Z,17.20
2017-07-25T14:17:42.004Z,17.30
2017-07-25T14:20:10.121Z,17.30
2017-07-25T14:22:39.686Z,17.30
2017-07-25T14:25:08.693Z,17.30
2017-07-25T14:27:37.575Z,17.30
2017-07-25T14:30:07.603Z,17.30
2017-07-25T14:32:35.729Z,17.20
2017-07-25T14:35:03.919Z,17.10
2017-07-25T14:37:32.945Z,17.10
2017-07-25T14:40:01.082Z,17.10
2017-07-25T14:42:30.026Z,17.10
2017-07-25T14:44:58.263Z,17.10
2017-07-25T14:47:26.466Z,17.00
2017-07-25T14:49:54.619Z,17.00
2017-07-25T14:52:22.732Z,17.20
2017-07-25T14:54:50.874Z,17.20
2017-07-25T14:57:19.044Z,17.10
2017-07-25T14:59:50.320Z,17.00
2017-07-25T15:02:20.804Z,17.00
2017-07-25T15:04:51.944Z,17.00
2017-07-25T15:07:21.496Z,17.00
2017-07-25T15:09:49.899Z,17.00
2017-07-25T15:12:18.031Z,17.00
2017-07-25T15:14:46.248Z,17.00
2017-07-25T15:17:14.583Z,17.00
2017-07-25T15:19:45.106Z,17.00
2017-07-25T15:22:16.842Z,17.00
2017-07-25T15:24:45.004Z,17.10
2017-07-25T15:27:15.124Z,17.10
2017-07-25T15:29:43.424Z,17.30
2017-07-25T15:32:12.619Z,17.40
2017-07-25T15:34:41.218Z,17.40
2017-07-25T15:37:09.641Z,17.40
2017-07-25T15:39:38.702Z,17.30
2017-07-25T15:42:07.899Z,17.40
2017-07-25T15:44:36.882Z,17.40
2017-07-25T15:47:05.070Z,17.30
2017-07-25T15:49:44.940Z,17.30
2017-07-25T15:55:13.501Z,17.20
2017-07-25T15:57:49.986Z,17.20
2017-07-25T16:00:18.140Z,17.20
2017-07-25T16:02:47.080Z,17.30
2017-07-25T16:05:15.221Z,17.30
2017-07-25T16:07:53.548Z,17.30
2017-07-25T16:10:24.422Z,17.30
2017-07-25T16:12:53.622Z,17.30
2017-07-25T16:15:23.326Z,17.30
2017-07-25T16:17:52.628Z,17.20
2017-07-25T16:20:24.040Z,17.20
2017-07-25T16:22:52.939Z,17.20
2017-07-25T16:25:22.311Z,17.20
2017-07-25T16:27:54.602Z,17.10
2017-07-25T16:30:23.222Z,17.00
2017-07-25T16:32:55.436Z,17.00
2017-07-25T16:35:23.995Z,17.00
2017-07-25T16:38:00.708Z,17.00
2017-07-25T16:40:29.265Z,17.00
2017-07-25T16:42:58.158Z,17.00
2017-07-25T16:45:27.132Z,17.00
2017-07-25T16:47:55.462Z,17.00
2017-07-25T16:50:37.824Z,17.00
2017-07-25T16:53:06.727Z,17.00
2017-07-25T16:55:37.542Z,17.00
2017-07-25T16:58:08.904Z,16.90
2017-07-25T17:00:39.420Z,16.90
2017-07-25T17:03:09.343Z,16.90
2017-07-25T17:05:41.239Z,16.80
2017-07-25T17:08:10.223Z,16.80
2017-07-25T17:10:53.765Z,16.70
2017-07-25T17:13:23.771Z,16.70
2017-07-25T17:15:52.018Z,16.60
2017-07-25T17:18:20.333Z,16.60
2017-07-25T17:20:48.461Z,16.50
2017-07-25T17:23:18.517Z,16.40
2017-07-25T17:25:47.667Z,16.40
2017-07-25T17:28:17.126Z,16.30
2017-07-25T17:31:00.351Z,16.30
2017-07-25T17:33:29.481Z,16.10
2017-07-25T17:36:09.128Z,16.00
2017-07-25T17:38:37.798Z,15.90
2017-07-25T17:41:09.220Z,15.80
2017-07-25T17:43:37.482Z,15.80
2017-07-25T18:37:19.020Z,15.20
2017-07-25T18:43:00.180Z,15.20
2017-07-25T19:19:30.008Z,15.20
2017-07-25T19:22:00.538Z,15.20
2017-07-25T19:24:29.509Z,15.20
2017-07-25T19:27:00.179Z,15.10
2017-07-25T19:29:31.726Z,15.00
2017-07-25T19:31:59.826Z,15.00
2017-07-25T19:34:29.705Z,15.00
2017-07-25T19:36:58.456Z,15.00
2017-07-25T19:39:29.025Z,14.90
2017-07-25T19:41:58.413Z,14.90
2017-07-25T19:44:42.158Z,14.80
2017-07-25T19:47:10.537Z,14.80
2017-07-25T19:49:45.861Z,14.70
2017-07-25T19:52:25.527Z,14.60
2017-07-25T19:54:55.696Z,14.60
2017-07-25T19:57:26.883Z,14.70
2017-07-25T19:59:55.710Z,14.60
2017-07-25T20:02:30.021Z,14.70
2017-07-25T20:05:00.199Z,14.70
2017-07-25T20:07:37.305Z,14.80
2017-07-25T20:13:17.778Z,14.80
2017-07-25T20:15:58.336Z,14.80
2017-07-25T20:18:26.611Z,14.80
2017-07-25T20:20:56.048Z,14.70
2017-07-25T20:23:24.349Z,14.70
2017-07-25T20:25:53.950Z,14.60
2017-07-25T20:28:24.852Z,14.50
2017-07-25T20:30:53.059Z,14.40
2017-07-25T20:33:29.234Z,14.30
2017-07-25T20:35:58.217Z,14.30
2017-07-25T20:38:28.252Z,14.30
2017-07-25T20:40:57.216Z,14.30
2017-07-25T20:43:25.560Z,14.30
2017-07-25T20:45:53.874Z,14.30
2017-07-25T20:48:40.329Z,14.30
2017-07-25T20:51:14.278Z,14.20
2017-07-25T20:53:42.501Z,14.10
2017-07-25T20:56:16.208Z,14.10
2017-07-25T20:58:44.457Z,14.00
2017-07-25T21:01:12.628Z,14.00
2017-07-25T21:03:40.842Z,14.00
2017-07-25T21:06:10.091Z,14.00
2017-07-25T21:08:39.506Z,13.90
2017-07-25T21:11:15.184Z,13.90
2017-07-25T21:13:43.485Z,13.90
2017-07-25T21:16:12.129Z,13.80
2017-07-25T21:18:43.085Z,13.70
2017-07-25T21:21:11.425Z,13.70
2017-07-25T21:23:39.900Z,13.60
2017-07-25T21:26:08.034Z,13.60
2017-07-25T21:28:39.487Z,13.50
2017-07-25T21:31:14.735Z,13.50
2017-07-25T21:33:50.446Z,13.50
2017-07-25T21:36:23.079Z,13.50
2017-07-25T21:38:53.320Z,13.50
2017-07-25T21:41:22.196Z,13.50
2017-07-25T21:44:09.362Z,13.50
2017-07-25T21:46:39.174Z,13.50
2017-07-25T21:52:39.248Z,13.50
2017-07-25T21:55:09.341Z,13.50
2017-07-25T21:57:38.741Z,13.50
2017-07-25T22:00:25.333Z,13.40
2017-07-25T22:03:15.979Z,13.40
2017-07-25T22:05:44.172Z,13.40
2017-07-25T22:08:18.124Z,13.40
2017-07-25T22:10:48.204Z,13.40
2017-07-25T22:13:16.397Z,13.30
2017-07-25T22:15:45.452Z,13.30
2017-07-25T22:18:14.397Z,13.30
2017-07-25T22:20:43.887Z,13.30
2017-07-25T22:23:16.943Z,13.30
2017-07-25T22:25:46.340Z,13.30
2017-07-25T22:28:18.269Z,13.20
2017-07-25T22:30:47.376Z,13.20
2017-07-25T22:33:15.849Z,13.20
2017-07-25T22:35:46.635Z,13.20
2017-07-25T22:38:15.890Z,13.20
2017-07-25T22:41:05.778Z,13.20
2017-07-25T22:43:34.307Z,13.20
2017-07-25T22:46:05.919Z,13.20
2017-07-25T22:48:35.731Z,13.20
2017-07-25T22:54:06.144Z,13.20
2017-07-25T22:56:35.364Z,13.20
2017-07-25T22:59:06.100Z,13.20
2017-07-25T23:01:35.890Z,13.20
2017-07-25T23:04:04.994Z,13.20
2017-07-25T23:06:37.778Z,13.20
2017-07-25T23:09:14.266Z,13.20
2017-07-25T23:14:34.346Z,13.10
2017-07-25T23:17:04.930Z,13.10
2017-07-25T23:19:33.603Z,13.10
2017-07-25T23:22:03.715Z,13.00
2017-07-25T23:24:33.881Z,13.00
2017-07-25T23:27:03.017Z,13.00
2017-07-25T23:29:35.402Z,13.00
2017-07-25T23:32:10.519Z,12.90
2017-07-25T23:34:39.861Z,12.90
2017-07-25T23:37:09.904Z,12.90
2017-07-25T23:39:38.854Z,12.90
2017-07-25T23:42:07.824Z,12.90
2017-07-25T23:44:36.773Z,12.90
2017-07-25T23:47:04.896Z,12.90
2017-07-25T23:52:12.411Z,12.90
2017-07-25T23:54:42.951Z,12.90
2017-07-25T23:57:17.595Z,13.00
2017-07-25T23:59:45.781Z,13.00
